createdAt,value
2023-01-05T00:01:45.895Z,100431.31
2023-01-05T00:04:13.310Z,100413.56
2023-01-05T00:06:41.114Z,100424.22
2023-01-05T00:09:12.013Z,100424.22
2023-01-05T00:11:57.176Z,100421.56
2023-01-05T00:14:46.677Z,100412.69
2023-01-05T00:17:43.084Z,100418.88
2023-01-05T00:20:37.783Z,100413.56
2023-01-05T00:23:05.745Z,100424.25
2023-01-05T00:25:37.437Z,100429.53
2023-01-05T00:28:04.833Z,100420.66
2023-01-05T00:30:40.005Z,100422.41
2023-01-05T00:33:19.179Z,100418.84
2023-01-05T00:35:45.960Z,100418.84
2023-01-05T00:38:12.775Z,100409.09
2023-01-05T00:40:39.821Z,100414.41
2023-01-05T00:43:06.851Z,100423.25
2023-01-05T00:45:33.754Z,100415.28
2023-01-05T00:48:00.583Z,100433.06
2023-01-05T00:50:27.784Z,100425.09
2023-01-05T00:52:54.566Z,100433.06
2023-01-05T00:55:21.392Z,100429.56
2023-01-05T00:57:48.190Z,100442.88
2023-01-05T01:00:18.418Z,100439.38
2023-01-05T01:02:45.297Z,100436.78
2023-01-05T01:05:12.521Z,100452.72
2023-01-05T01:07:39.366Z,100458.97
2023-01-05T01:10:07.521Z,100458.13
2023-01-05T01:12:34.447Z,100450.19
2023-01-05T01:15:01.230Z,100453.72
2023-01-05T01:17:28.114Z,100462.56
2023-01-05T01:19:54.921Z,100454.63
2023-01-05T01:22:21.695Z,100452.84
2023-01-05T01:24:48.466Z,100459.91
2023-01-05T01:27:15.480Z,100464.34
2023-01-05T01:29:42.257Z,100484.69
2023-01-05T01:32:09.042Z,100474.97
2023-01-05T01:34:35.974Z,100468.75
2023-01-05T01:39:28.504Z,100474.06
2023-01-05T01:41:55.287Z,100474.09
2023-01-05T01:44:56.089Z,100474.09
2023-01-05T01:47:33.334Z,100487.38
2023-01-05T01:50:31.819Z,100476.75
2023-01-05T01:53:12.209Z,100476.72
2023-01-05T01:55:40.120Z,100475.84
2023-01-05T01:58:11.281Z,100492.69
2023-01-05T02:00:40.281Z,100477.63
2023-01-05T02:03:07.151Z,100473.25
2023-01-05T02:05:37.115Z,100477.69
2023-01-05T02:08:10.890Z,100486.53
2023-01-05T02:11:21.644Z,100485.66
2023-01-05T02:13:48.265Z,100494.53
2023-01-05T02:16:23.112Z,100500.75
2023-01-05T02:19:21.977Z,100485.69
2023-01-05T02:22:18.639Z,100490.13
2023-01-05T02:25:29.342Z,100494.59
2023-01-05T02:28:13.958Z,100497.25
2023-01-05T02:30:59.722Z,100494.66
2023-01-05T02:33:32.901Z,100488.44
2023-01-05T02:36:35.729Z,100500.84
2023-01-05T02:39:15.498Z,100493.75
2023-01-05T02:42:04.018Z,100485.78
2023-01-05T02:44:33.558Z,100481.31
2023-01-05T02:47:07.013Z,100491.94
2023-01-05T02:49:40.158Z,100499.88
2023-01-05T02:52:10.008Z,100491.00
2023-01-05T02:54:48.015Z,100490.13
2023-01-05T02:57:46.148Z,100492.72
2023-01-05T03:00:40.364Z,100497.16
2023-01-05T03:03:24.240Z,100500.69
2023-01-05T03:06:06.716Z,100493.63
2023-01-05T03:08:40.995Z,100504.25
2023-01-05T03:11:27.881Z,100498.97
2023-01-05T03:14:05.407Z,100506.06
2023-01-05T03:16:37.774Z,100499.81
2023-01-05T03:19:31.059Z,100508.66
2023-01-05T03:22:18.365Z,100502.44
2023-01-05T03:25:04.069Z,100508.66
2023-01-05T03:27:50.818Z,100511.31
2023-01-05T03:30:36.663Z,100513.09
2023-01-05T03:33:48.841Z,100519.28
2023-01-05T03:36:18.590Z,100527.25
2023-01-05T03:38:47.279Z,100511.31
2023-01-05T03:41:16.406Z,100524.59
2023-01-05T03:43:43.636Z,100513.06
2023-01-05T03:46:16.973Z,100516.59
2023-01-05T03:48:43.885Z,100518.41
2023-01-05T03:51:10.818Z,100518.34
2023-01-05T03:53:37.575Z,100523.66
2023-01-05T03:56:04.718Z,100532.53
2023-01-05T03:58:31.467Z,100535.19
2023-01-05T04:00:58.200Z,100543.16
2023-01-05T04:03:29.568Z,100538.69
2023-01-05T04:05:58.615Z,100545.75
2023-01-05T04:08:25.412Z,100539.56
2023-01-05T04:10:53.483Z,100548.41
2023-01-05T04:13:20.675Z,100550.19
2023-01-05T04:15:47.872Z,100544.88
2023-01-05T04:18:14.889Z,100558.09
2023-01-05T04:20:41.874Z,100555.44
2023-01-05T04:23:08.651Z,100554.56
2023-01-05T04:25:35.432Z,100560.81
2023-01-05T04:28:02.232Z,100561.69
2023-01-05T04:30:29.018Z,100551.06
2023-01-05T04:32:55.828Z,100571.44
2023-01-05T04:35:22.656Z,100567.06
2023-01-05T04:37:49.430Z,100572.38
2023-01-05T04:40:16.302Z,100559.13
2023-01-05T04:42:43.079Z,100572.47
2023-01-05T04:45:10.763Z,100570.69
2023-01-05T04:47:37.531Z,100573.34
2023-01-05T04:50:04.890Z,100574.28
2023-01-05T04:52:31.683Z,100582.25
2023-01-05T04:54:58.467Z,100573.44
2023-01-05T04:57:25.296Z,100575.22
2023-01-05T04:59:52.088Z,100582.31
2023-01-05T05:02:19.039Z,100583.22
2023-01-05T05:04:45.890Z,100581.44
2023-01-05T05:07:12.664Z,100584.09
2023-01-05T05:09:39.435Z,100578.78
2023-01-05T05:12:06.505Z,100595.59
2023-01-05T05:14:33.288Z,100608.00
2023-01-05T05:17:00.191Z,100604.47
2023-01-05T05:19:27.023Z,100605.34
2023-01-05T05:21:53.824Z,100611.50
2023-01-05T05:24:20.603Z,100615.00
2023-01-05T05:26:47.403Z,100599.94
2023-01-05T05:29:14.154Z,100607.03
2023-01-05T05:31:40.984Z,100604.34
2023-01-05T05:34:07.813Z,100609.69
2023-01-05T05:36:36.095Z,100626.47
2023-01-05T05:39:02.840Z,100627.34
2023-01-05T05:41:29.642Z,100627.34
2023-01-05T05:44:00.747Z,100630.91
2023-01-05T05:46:28.253Z,100622.94
2023-01-05T05:48:56.165Z,100621.13
2023-01-05T05:51:23.794Z,100616.69
2023-01-05T05:53:51.241Z,100626.44
2023-01-05T05:56:18.702Z,100629.97
2023-01-05T05:58:45.590Z,100631.75
2023-01-05T06:01:12.801Z,100633.50
2023-01-05T06:03:39.722Z,100633.50
2023-01-05T06:06:07.021Z,100636.16
2023-01-05T06:08:33.899Z,100630.84
2023-01-05T06:11:00.749Z,100646.78
2023-01-05T06:13:27.794Z,100645.03
2023-01-05T06:15:54.893Z,100644.13
2023-01-05T06:18:22.256Z,100649.44
2023-01-05T06:20:49.040Z,100654.75
2023-01-05T06:23:15.814Z,100663.59
2023-01-05T06:25:43.286Z,100663.59
2023-01-05T06:28:10.113Z,100675.09
2023-01-05T06:30:36.866Z,100683.94
2023-01-05T06:33:03.898Z,100683.94
2023-01-05T06:35:30.718Z,100689.25
2023-01-05T06:37:57.483Z,100695.47
2023-01-05T06:40:24.235Z,100698.13
2023-01-05T06:42:51.004Z,100694.59
2023-01-05T06:45:17.858Z,100698.16
2023-01-05T06:47:45.016Z,100698.16
2023-01-05T06:50:11.902Z,100700.84
2023-01-05T06:52:40.148Z,100700.84
2023-01-05T06:55:09.884Z,100708.81
2023-01-05T06:57:37.164Z,100717.66
2023-01-05T07:00:10.934Z,100724.75
2023-01-05T07:02:38.179Z,100719.44
2023-01-05T07:05:05.635Z,100723.88
2023-01-05T07:07:32.709Z,100731.84
2023-01-05T07:09:59.749Z,100730.03
2023-01-05T07:12:26.692Z,100736.22
2023-01-05T07:14:57.464Z,100735.34
2023-01-05T07:17:25.258Z,100743.31
2023-01-05T07:19:52.025Z,100745.13
2023-01-05T07:22:18.780Z,100755.72
2023-01-05T07:24:46.166Z,100759.25
2023-01-05T07:27:12.943Z,100753.94
2023-01-05T07:29:39.713Z,100757.47
2023-01-05T07:32:06.659Z,100753.94
2023-01-05T07:34:33.470Z,100775.19
2023-01-05T07:37:00.307Z,100771.66
2023-01-05T07:39:27.189Z,100786.69
2023-01-05T07:41:53.956Z,100786.72
2023-01-05T07:44:20.748Z,100806.22
2023-01-05T07:46:47.608Z,100791.19
2023-01-05T07:49:15.243Z,100803.59
2023-01-05T07:51:42.029Z,100794.78
2023-01-05T07:54:08.816Z,100812.47
2023-01-05T07:56:35.581Z,100805.41
2023-01-05T07:59:02.396Z,100811.63
2023-01-05T08:01:29.312Z,100812.53
2023-01-05T08:03:56.225Z,100820.50
2023-01-05T08:06:25.051Z,100821.38
2023-01-05T08:08:51.823Z,100817.84
2023-01-05T08:11:21.747Z,100819.63
2023-01-05T08:14:00.883Z,100825.84
2023-01-05T08:16:32.366Z,100829.38
2023-01-05T08:18:59.917Z,100837.34
2023-01-05T08:21:26.953Z,100835.56
2023-01-05T08:23:54.120Z,100840.00
2023-01-05T08:26:23.564Z,100845.28
2023-01-05T08:28:51.461Z,100854.13
2023-01-05T08:31:22.740Z,100857.66
2023-01-05T08:33:50.173Z,100853.25
2023-01-05T08:36:20.233Z,100845.28
2023-01-05T08:38:56.049Z,100857.69
2023-01-05T08:41:27.954Z,100855.94
2023-01-05T08:43:57.656Z,100857.69
2023-01-05T08:46:27.622Z,100864.78
2023-01-05T08:48:57.422Z,100863.88
2023-01-05T08:51:24.757Z,100874.50
2023-01-05T08:53:51.709Z,100879.81
2023-01-05T08:56:19.153Z,100881.59
2023-01-05T08:58:46.045Z,100892.22
2023-01-05T09:01:16.822Z,100887.75
2023-01-05T09:03:44.498Z,100890.44
2023-01-05T09:06:13.214Z,100896.63
2023-01-05T09:08:42.193Z,100899.28
2023-01-05T09:11:18.209Z,100907.25
2023-01-05T09:13:54.610Z,100910.81
2023-01-05T09:16:56.862Z,100915.22
2023-01-05T09:19:13.541Z,100920.53
2023-01-05T09:21:40.494Z,100929.38
2023-01-05T09:24:08.851Z,100940.88
2023-01-05T09:26:35.639Z,100936.47
2023-01-05T09:29:02.439Z,100948.84
2023-01-05T09:31:29.665Z,100937.34
2023-01-05T09:34:00.371Z,100959.47
2023-01-05T09:36:27.431Z,100963.00
2023-01-05T09:38:58.364Z,100977.16
2023-01-05T09:41:52.271Z,100972.75
2023-01-05T09:44:46.440Z,100976.28
2023-01-05T09:47:37.697Z,100984.28
2023-01-05T09:50:17.923Z,100989.56
2023-01-05T09:52:44.767Z,100996.63
2023-01-05T09:55:20.960Z,101004.59
2023-01-05T09:58:00.149Z,101010.81
2023-01-05T10:00:28.383Z,101015.22
2023-01-05T10:03:53.632Z,101017.03
2023-01-05T10:06:15.000Z,101030.31
2023-01-05T10:08:50.037Z,101041.81
2023-01-05T10:12:16.878Z,101050.63
2023-01-05T10:14:50.435Z,101053.28
2023-01-05T10:20:43.642Z,101063.84
2023-01-05T10:23:50.911Z,101069.16
2023-01-05T10:27:14.399Z,101066.50
2023-01-05T10:29:47.737Z,101079.75
2023-01-05T10:32:50.502Z,101078.00
2023-01-05T10:35:59.096Z,101072.69
2023-01-05T10:38:50.172Z,101085.06
2023-01-05T10:41:59.121Z,101086.81
2023-01-05T10:44:56.579Z,101083.28
2023-01-05T10:47:26.141Z,101093.03
2023-01-05T10:49:53.582Z,101096.56
2023-01-05T10:52:22.413Z,101089.50
2023-01-05T10:54:58.551Z,101098.38
2023-01-05T10:57:40.286Z,101099.25
2023-01-05T11:00:19.806Z,101099.25
2023-01-05T11:03:03.149Z,101098.34
2023-01-05T11:05:45.249Z,101098.34
2023-01-05T11:08:27.241Z,101103.63
2023-01-05T11:10:58.981Z,101102.75
2023-01-05T11:13:31.862Z,101098.34
2023-01-05T11:16:16.117Z,101108.06
2023-01-05T11:19:01.727Z,101116.91
2023-01-05T11:21:45.937Z,101112.50
2023-01-05T11:24:24.913Z,101110.72
2023-01-05T11:27:01.717Z,101115.16
2023-01-05T11:29:29.592Z,101118.72
2023-01-05T11:32:10.942Z,101120.50
2023-01-05T11:34:47.129Z,101120.50
2023-01-05T11:37:28.596Z,101112.53
2023-01-05T11:40:00.953Z,101119.63
2023-01-05T11:42:30.523Z,101115.25
2023-01-05T11:45:17.606Z,101115.22
2023-01-05T11:48:04.976Z,101120.56
2023-01-05T11:50:42.898Z,101113.44
2023-01-05T11:53:33.734Z,101128.50
2023-01-05T11:56:22.578Z,101131.09
2023-01-05T11:58:55.012Z,101136.41
2023-01-05T12:01:44.514Z,101133.78
2023-01-05T12:04:48.154Z,101141.78
2023-01-05T12:07:38.426Z,101141.78
2023-01-05T12:10:29.484Z,101143.50
2023-01-05T12:13:30.275Z,101127.56
2023-01-05T12:16:38.889Z,101146.16
2023-01-05T12:19:18.546Z,101132.00
2023-01-05T12:21:51.401Z,101138.19
2023-01-05T12:24:42.667Z,101144.38
2023-01-05T12:27:32.830Z,101147.91
2023-01-05T12:37:00.399Z,101153.22
2023-01-05T12:40:11.246Z,101156.75
2023-01-05T12:42:58.572Z,101158.56
2023-01-05T12:45:57.428Z,101164.72
2023-01-05T12:48:32.998Z,101175.34
2023-01-05T12:51:26.507Z,101173.56
2023-01-05T12:54:46.518Z,101180.63
2023-01-05T12:57:38.708Z,101171.75
2023-01-05T13:00:14.998Z,101179.72
2023-01-05T13:02:49.512Z,101186.81
2023-01-05T13:05:51.038Z,101187.72
2023-01-05T13:08:24.786Z,101177.97
2023-01-05T13:11:06.845Z,101192.13
2023-01-05T13:13:40.313Z,101190.38
2023-01-05T13:16:16.510Z,101191.25
2023-01-05T13:18:54.038Z,101197.44
2023-01-05T13:21:23.051Z,101197.44
2023-01-05T13:23:59.903Z,101200.06
2023-01-05T13:26:26.724Z,101200.97
2023-01-05T13:29:02.691Z,101200.06
2023-01-05T13:32:04.810Z,101209.81
2023-01-05T13:35:15.196Z,101215.09
2023-01-05T13:38:23.737Z,101225.69
2023-01-05T13:41:24.405Z,101231.88
2023-01-05T13:44:11.158Z,101228.34
2023-01-05T13:47:13.033Z,101230.09
2023-01-05T13:50:23.039Z,101236.28
2023-01-05T13:53:06.756Z,101238.94
2023-01-05T13:55:45.442Z,101243.38
2023-01-05T13:58:39.692Z,101236.31
2023-01-05T14:01:12.336Z,101246.03
2023-01-05T14:03:46.643Z,101246.03
2023-01-05T14:06:27.510Z,101247.84
2023-01-05T14:11:36.900Z,101242.53
2023-01-05T14:14:31.307Z,101247.81
2023-01-05T14:16:58.385Z,101262.00
2023-01-05T14:19:50.302Z,101270.84
2023-01-05T14:22:33.546Z,101266.41
2023-01-05T14:25:38.632Z,101269.94
2023-01-05T14:28:43.326Z,101277.88
2023-01-05T14:31:18.912Z,101286.75
2023-01-05T14:33:52.223Z,101281.44
2023-01-05T14:36:33.303Z,101293.81
2023-01-05T14:39:05.018Z,101298.25
2023-01-05T14:41:31.957Z,101299.13
2023-01-05T14:44:17.452Z,101314.19
2023-01-05T14:46:55.622Z,101317.72
2023-01-05T14:49:43.652Z,101318.59
2023-01-05T14:52:22.058Z,101331.88
2023-01-05T14:54:52.951Z,101331.00
2023-01-05T14:57:27.259Z,101332.75
2023-01-05T15:00:10.928Z,101326.56
2023-01-05T15:03:12.383Z,101335.41
2023-01-05T15:06:28.364Z,101333.66
2023-01-05T15:09:01.087Z,101338.97
2023-01-05T15:11:36.707Z,101338.97
2023-01-05T15:14:37.417Z,101340.72
2023-01-05T15:17:29.368Z,101346.03
2023-01-05T15:20:17.704Z,101352.22
2023-01-05T15:23:36.613Z,101362.81
2023-01-05T15:26:28.094Z,101364.56
2023-01-05T15:29:42.187Z,101361.06
2023-01-05T15:32:22.013Z,101373.41
2023-01-05T15:35:08.211Z,101369.00
2023-01-05T15:37:38.894Z,101365.44
2023-01-05T15:40:31.575Z,101365.47
2023-01-05T15:43:02.772Z,101368.97
2023-01-05T15:45:36.143Z,101375.16
2023-01-05T15:48:09.651Z,101382.22
2023-01-05T15:50:46.595Z,101377.78
2023-01-05T15:53:30.188Z,101383.97
2023-01-05T15:55:58.710Z,101381.28
2023-01-05T15:58:29.889Z,101383.06
2023-01-05T16:01:08.524Z,101378.63
2023-01-05T16:03:37.978Z,101379.53
2023-01-05T16:06:21.420Z,101383.94
2023-01-05T16:08:51.618Z,101376.84
2023-01-05T16:11:26.678Z,101379.50
2023-01-05T16:14:38.660Z,101384.81
2023-01-05T16:17:15.791Z,101383.91
2023-01-05T16:20:09.494Z,101391.84
2023-01-05T16:22:45.580Z,101396.28
2023-01-05T16:25:22.072Z,101392.75
2023-01-05T16:27:58.497Z,101403.38
2023-01-05T16:30:35.897Z,101401.59
2023-01-05T16:33:12.033Z,101416.63
2023-01-05T16:35:55.165Z,101413.97
2023-01-05T16:38:30.369Z,101419.28
2023-01-05T16:41:09.886Z,101412.25
2023-01-05T16:43:39.715Z,101410.47
2023-01-05T16:46:39.017Z,101405.16
2023-01-05T16:49:49.902Z,101409.56
2023-01-05T16:52:27.234Z,101410.41
2023-01-05T16:55:27.678Z,101405.16
2023-01-05T16:57:55.606Z,101410.47
2023-01-05T17:00:28.307Z,101417.53
2023-01-05T17:03:00.705Z,101419.31
2023-01-05T17:05:32.085Z,101421.09
2023-01-05T17:08:20.556Z,101429.97
2023-01-05T17:10:47.837Z,101424.66
2023-01-05T17:13:35.899Z,101431.72
2023-01-05T17:16:03.957Z,101430.84
2023-01-05T17:18:31.251Z,101429.09
2023-01-05T17:20:59.597Z,101429.09
2023-01-05T17:23:33.707Z,101425.56
2023-01-05T17:26:06.466Z,101438.84
2023-01-05T17:28:33.635Z,101439.72
2023-01-05T17:31:00.619Z,101439.75
2023-01-05T17:33:27.565Z,101438.88
2023-01-05T17:35:55.153Z,101436.19
2023-01-05T17:38:21.974Z,101443.28
2023-01-05T17:40:49.225Z,101447.69
2023-01-05T17:43:16.256Z,101439.75
2023-01-05T17:45:44.303Z,101441.53
2023-01-05T17:50:43.744Z,101445.94
2023-01-05T17:53:10.842Z,101443.28
2023-01-05T17:55:39.449Z,101445.06
2023-01-05T17:58:06.309Z,101444.16
2023-01-05T18:00:39.501Z,101436.19
2023-01-05T18:03:06.289Z,101431.75
2023-01-05T18:05:33.084Z,101426.47
2023-01-05T18:08:00.196Z,101435.28
2023-01-05T18:10:29.120Z,101426.47
2023-01-05T18:12:56.654Z,101422.94
2023-01-05T18:15:23.628Z,101424.69
2023-01-05T18:17:50.432Z,101429.09
2023-01-05T18:20:20.028Z,101437.94
2023-01-05T18:22:48.387Z,101439.69
2023-01-05T18:25:15.408Z,101440.59
2023-01-05T18:27:42.228Z,101440.59
2023-01-05T18:30:11.166Z,101438.84
2023-01-05T18:32:39.021Z,101430.00
2023-01-05T18:35:09.886Z,101436.19
2023-01-05T18:37:39.051Z,101437.06
2023-01-05T18:40:06.914Z,101435.28
2023-01-05T18:42:33.685Z,101429.97
2023-01-05T18:45:08.946Z,101431.75
2023-01-05T18:47:46.512Z,101437.06
2023-01-05T18:50:13.435Z,101437.94
2023-01-05T18:52:40.201Z,101439.75
2023-01-05T18:55:07.287Z,101439.75
2023-01-05T18:57:34.272Z,101439.75
2023-01-05T19:00:01.151Z,101438.00
2023-01-05T19:02:28.425Z,101438.03
2023-01-05T19:04:55.785Z,101436.22
2023-01-05T19:07:22.661Z,101438.88
2023-01-05T19:09:49.455Z,101431.81
2023-01-05T19:12:16.387Z,101434.47
2023-01-05T19:14:43.158Z,101433.56
2023-01-05T19:17:09.977Z,101435.34
2023-01-05T19:19:36.758Z,101433.56
2023-01-05T19:22:03.560Z,101430.03
2023-01-05T19:24:31.758Z,101437.13
2023-01-05T19:26:58.763Z,101429.16
2023-01-05T19:29:25.612Z,101426.50
2023-01-05T19:31:52.412Z,101422.94
2023-01-05T19:34:19.605Z,101426.50
2023-01-05T19:36:49.085Z,101417.66
2023-01-05T19:39:19.483Z,101422.97
2023-01-05T19:41:48.329Z,101411.47
2023-01-05T19:44:21.109Z,101411.47
2023-01-05T19:46:54.651Z,101421.22
2023-01-05T19:49:25.703Z,101428.25
2023-01-05T19:51:53.160Z,101417.63
2023-01-05T19:54:22.328Z,101422.94
2023-01-05T19:56:49.153Z,101415.00
2023-01-05T19:59:26.390Z,101414.13
2023-01-05T20:01:54.793Z,101415.00
2023-01-05T20:04:21.638Z,101421.16
2023-01-05T20:06:48.429Z,101425.59
2023-01-05T20:09:18.796Z,101433.53
2023-01-05T20:11:48.797Z,101426.47
2023-01-05T20:14:30.789Z,101425.59
2023-01-05T20:17:05.708Z,101422.91
2023-01-05T20:19:35.236Z,101429.97
2023-01-05T20:22:05.720Z,101415.84
2023-01-05T20:24:36.069Z,101414.06
2023-01-05T20:27:08.407Z,101418.47
2023-01-05T20:29:35.889Z,101410.53
2023-01-05T20:32:08.206Z,101420.25
2023-01-05T20:34:38.371Z,101416.72
2023-01-05T20:37:08.010Z,101419.38
2023-01-05T20:39:36.023Z,101411.44
2023-01-05T20:42:05.882Z,101412.28
2023-01-05T20:44:37.045Z,101410.53
2023-01-05T20:47:06.441Z,101407.88
2023-01-05T20:49:36.669Z,101402.53
2023-01-05T20:52:04.969Z,101401.66
2023-01-05T20:54:31.778Z,101403.44
2023-01-05T20:56:58.575Z,101394.59
2023-01-05T20:59:30.070Z,101407.84
2023-01-05T21:01:58.876Z,101414.03
2023-01-05T21:04:27.771Z,101405.19
2023-01-05T21:06:54.711Z,101408.72
2023-01-05T21:09:25.430Z,101404.31
2023-01-05T21:11:52.206Z,101412.25
2023-01-05T21:14:19.905Z,101416.66
2023-01-05T21:16:51.646Z,101414.91
2023-01-05T21:19:22.924Z,101417.56
2023-01-05T21:21:55.674Z,101410.47
2023-01-05T21:24:23.334Z,101414.88
2023-01-05T21:26:50.194Z,101414.88
2023-01-05T21:29:20.131Z,101415.78
2023-01-05T21:31:46.979Z,101414.84
2023-01-05T21:34:14.061Z,101412.19
2023-01-05T21:36:45.096Z,101412.19
2023-01-05T21:39:18.871Z,101410.38
2023-01-05T21:42:05.886Z,101407.69
2023-01-05T21:44:33.394Z,101411.16
2023-01-05T21:47:00.287Z,101404.06
2023-01-05T21:49:27.321Z,101407.56
2023-01-05T21:52:12.836Z,101406.66
2023-01-05T21:54:57.925Z,101403.09
2023-01-05T21:57:24.967Z,101404.84
2023-01-05T21:59:51.827Z,101392.47
2023-01-05T22:02:18.744Z,101401.28
2023-01-05T22:04:45.925Z,101405.75
2023-01-05T22:07:12.805Z,101403.09
2023-01-05T22:09:39.675Z,101390.75
2023-01-05T22:12:08.649Z,101395.19
2023-01-05T22:14:39.696Z,101398.75
2023-01-05T22:17:08.452Z,101390.81
2023-01-05T22:19:35.698Z,101397.00
2023-01-05T22:22:02.508Z,101390.81
2023-01-05T22:24:29.322Z,101394.41
2023-01-05T22:26:56.384Z,101389.09
2023-01-05T22:29:23.553Z,101380.28
2023-01-05T22:31:50.737Z,101387.34
2023-01-05T22:34:17.787Z,101378.50
2023-01-05T22:36:44.662Z,101384.69
2023-01-05T22:39:12.241Z,101389.16
2023-01-05T22:41:39.145Z,101379.41
2023-01-05T22:44:06.680Z,101382.97
2023-01-05T22:46:34.029Z,101383.00
2023-01-05T22:49:00.847Z,101380.34
2023-01-05T22:51:31.513Z,101374.16
2023-01-05T22:53:59.325Z,101377.72
2023-01-05T22:56:31.685Z,101374.19
2023-01-05T22:58:59.054Z,101377.72
2023-01-05T23:01:37.007Z,101381.25
2023-01-05T23:04:06.167Z,101369.75
2023-01-05T23:06:33.508Z,101373.31
2023-01-05T23:09:00.847Z,101358.28
2023-01-05T23:11:34.612Z,101370.66
2023-01-05T23:14:04.385Z,101360.06
2023-01-05T23:16:32.581Z,101360.06
2023-01-05T23:18:59.409Z,101358.28
2023-01-05T23:21:26.869Z,101353.91
2023-01-05T23:23:56.320Z,101347.72
2023-01-05T23:26:25.328Z,101345.97
2023-01-05T23:28:52.381Z,101345.97
2023-01-05T23:31:25.240Z,101340.66
2023-01-05T23:33:54.736Z,101327.38
2023-01-05T23:36:23.826Z,101331.81
2023-01-05T23:38:50.763Z,101330.03
2023-01-05T23:41:17.938Z,101330.06
2023-01-05T23:43:46.069Z,101324.75
2023-01-05T23:46:16.903Z,101320.31
2023-01-05T23:48:44.233Z,101312.38
2023-01-05T23:51:16.850Z,101316.81
2023-01-05T23:53:47.605Z,101308.84
2023-01-05T23:56:19.186Z,101308.88
2023-01-05T23:58:46.289Z,101297.34
